Time;durP1;ratioP1;P1;durP2;ratioP2;P2;SDS_P1;SDS_P2;PMS_P1;PMS_P2;Temp;Humidity;BMP_temperature;BMP_pressure;BME280_temperature;BME280_humidity;BME280_pressure;Samples;Min_cycle;Max_cycle;Signal;HPM_P1;HPM_P2
2022/05/03 00:01:47;;;;;;;25.43;10.35;;;;;;;9.32;62.28;98777.90;2051456;85;20996;-61
2022/05/03 00:04:48;;;;;;;25.62;11.05;;;;;;;9.22;62.47;98783.25;2051305;85;21004;-61
2022/05/03 00:07:48;;;;;;;28.15;11.85;;;;;;;9.06;62.72;98780.64;2051322;85;21523;-61
2022/05/03 00:10:50;;;;;;;28.23;12.15;;;;;;;9.07;62.08;98779.72;2050945;87;21060;-61
2022/05/03 00:13:50;;;;;;;28.20;11.17;;;;;;;9.14;61.83;98777.62;2051423;85;21088;-61
2022/05/03 00:16:51;;;;;;;30.55;13.48;;;;;;;9.21;61.82;98776.34;2051513;85;21087;-61
2022/05/03 00:19:53;;;;;;;34.55;16.27;;;;;;;9.34;61.46;98768.65;2051177;85;20989;-61
2022/05/03 00:22:53;;;;;;;34.08;15.45;;;;;;;9.22;61.93;98768.86;2051285;85;21254;-61
2022/05/03 00:25:54;;;;;;;32.95;14.83;;;;;;;9.09;62.13;98773.09;2051559;87;21052;-60
2022/05/03 00:28:55;;;;;;;35.88;16.70;;;;;;;9.02;62.17;98764.73;2051516;85;21039;-61
2022/05/03 00:31:55;;;;;;;37.55;17.10;;;;;;;8.94;62.40;98761.72;2051102;85;21036;-61
2022/05/03 00:34:56;;;;;;;33.95;14.25;;;;;;;8.97;62.73;98762.38;2051424;86;21065;-61
2022/05/03 00:37:56;;;;;;;29.23;10.80;;;;;;;8.93;62.86;98768.70;2050948;87;21017;-61
2022/05/03 00:40:57;;;;;;;31.55;13.10;;;;;;;8.93;63.73;98763.95;2051147;85;21037;-61
2022/05/03 00:43:58;;;;;;;40.35;18.10;;;;;;;8.85;63.62;98761.77;2051608;86;20993;-61
2022/05/03 00:46:59;;;;;;;39.90;18.40;;;;;;;8.78;63.14;98760.41;2051449;86;20996;-61
2022/05/03 00:50:00;;;;;;;40.17;17.85;;;;;;;8.77;63.03;98770.48;2051114;85;20989;-61
2022/05/03 00:53:00;;;;;;;46.13;21.45;;;;;;;8.74;63.33;98764.95;2051565;87;21001;-61
2022/05/03 00:56:01;;;;;;;46.02;20.97;;;;;;;8.68;63.30;98762.68;2050780;85;21013;-61
2022/05/03 00:59:01;;;;;;;45.65;20.62;;;;;;;8.64;63.15;98763.30;2051067;87;21036;-61
2022/05/03 01:02:02;;;;;;;47.20;22.58;;;;;;;8.58;63.30;98770.17;2051007;85;21049;-61
2022/05/03 01:05:03;;;;;;;49.08;20.43;;;;;;;8.60;63.52;98770.92;2051118;85;21024;-61
2022/05/03 01:08:04;;;;;;;47.45;22.00;;;;;;;8.53;63.60;98763.50;2051061;85;21072;-61
2022/05/03 01:11:05;;;;;;;39.83;19.48;;;;;;;8.41;63.57;98760.58;2051056;85;21547;-61
2022/05/03 01:14:05;;;;;;;38.08;17.00;;;;;;;8.32;63.87;98759.77;2051239;85;21000;-61
2022/05/03 01:17:06;;;;;;;36.83;16.87;;;;;;;8.27;64.09;98756.55;2051055;85;21025;-61
2022/05/03 01:20:06;;;;;;;36.17;17.35;;;;;;;8.23;64.12;98754.57;2050800;85;21511;-61
2022/05/03 01:23:07;;;;;;;38.63;18.17;;;;;;;8.06;64.66;98750.22;2051154;85;21508;-61
2022/05/03 01:26:08;;;;;;;38.35;19.25;;;;;;;8.00;64.79;98750.98;2051188;85;21520;-61
2022/05/03 01:29:09;;;;;;;41.92;20.62;;;;;;;7.97;65.04;98754.16;2051033;87;21102;-61
2022/05/03 01:32:10;;;;;;;43.68;21.17;;;;;;;7.94;65.70;98751.70;2051434;85;21599;-61
2022/05/03 01:35:10;;;;;;;45.00;22.77;;;;;;;7.86;65.72;98754.30;2051295;85;21055;-61
2022/05/03 01:38:11;;;;;;;40.50;19.52;;;;;;;7.76;65.86;98752.17;2050902;85;21068;-60
2022/05/03 01:41:12;;;;;;;46.10;24.12;;;;;;;7.62;66.51;98760.68;2051176;87;21021;-60
2022/05/03 01:44:13;;;;;;;42.70;22.67;;;;;;;7.45;66.49;98758.91;2051024;87;21572;-60
2022/05/03 01:47:14;;;;;;;44.67;21.70;;;;;;;7.31;66.90;98761.81;2051267;85;21052;-60
2022/05/03 01:53:17;;;;;;;48.52;23.27;;;;;;;7.20;66.49;98757.97;2039426;86;21543;-60
2022/05/03 01:56:18;;;;;;;52.53;24.07;;;;;;;7.26;66.56;98764.19;2053532;86;21017;-60
2022/05/03 01:59:19;;;;;;;51.48;24.60;;;;;;;7.27;66.50;98758.53;2051038;85;21036;-60
2022/05/03 02:02:19;;;;;;;41.33;20.40;;;;;;;7.25;66.60;98755.12;2051311;87;21021;-60
2022/05/03 02:05:20;;;;;;;42.15;20.88;;;;;;;7.24;66.92;98753.43;2051097;85;21040;-60
2022/05/03 02:08:21;;;;;;;40.58;20.60;;;;;;;7.33;66.88;98754.30;2051215;85;20985;-61
2022/05/03 02:11:21;;;;;;;38.67;20.43;;;;;;;7.41;66.86;98752.17;2046397;85;21032;-61
2022/05/03 02:17:24;;;;;;;;;;;;;;;7.44;66.88;98745.94;2042637;86;21036;-60
2022/05/03 02:23:28;;;;;;;40.38;20.00;;;;;;;7.58;67.16;98745.26;2041669;86;21069;-61
2022/05/03 02:26:28;;;;;;;47.95;21.07;;;;;;;7.53;67.33;98736.36;2051924;86;21050;-60
2022/05/03 02:29:29;;;;;;;45.78;22.00;;;;;;;7.55;67.08;98737.59;2036621;87;20992;-60
2022/05/03 02:32:29;;;;;;;50.70;22.77;;;;;;;7.54;67.01;98743.72;2036421;87;21055;-61
2022/05/03 02:35:30;;;;;;;47.23;22.67;;;;;;;7.55;67.23;98738.89;2036434;87;21079;-60
2022/05/03 02:38:31;;;;;;;52.73;25.72;;;;;;;7.59;67.05;98734.73;2036498;87;21000;-60
2022/05/03 02:41:31;;;;;;;51.53;26.00;;;;;;;7.55;67.17;98734.50;2037065;87;20999;-61
2022/05/03 02:44:32;;;;;;;53.40;25.72;;;;;;;7.54;67.42;98739.36;2036482;87;20996;-61
2022/05/03 02:47:32;;;;;;;60.40;25.02;;;;;;;7.66;67.47;98739.64;2036620;87;21518;-60
2022/05/03 02:50:33;;;;;;;44.25;19.27;;;;;;;7.66;67.03;98735.28;2036609;86;21557;-61
2022/05/03 02:53:34;;;;;;;37.10;17.42;;;;;;;7.55;67.13;98730.59;2036609;87;21047;-60
2022/05/03 02:56:34;;;;;;;55.38;25.68;;;;;;;7.46;67.42;98737.59;2036354;87;21027;-61
2022/05/03 03:02:37;;;;;;;54.38;26.33;;;;;;;7.45;68.04;98735.89;2024975;87;21059;-61
2022/05/03 03:05:38;;;;;;;49.27;24.05;;;;;;;7.52;68.04;98735.13;2033841;87;21003;-61
2022/05/03 03:08:39;;;;;;;61.20;29.87;;;;;;;7.50;67.79;98731.73;2036578;87;21533;-61
2022/05/03 03:11:40;;;;;;;69.00;34.58;;;;;;;7.39;67.96;98723.16;2035971;86;21590;-61
2022/05/03 03:14:41;;;;;;;60.58;32.75;;;;;;;7.38;68.03;98727.98;2033315;88;21048;-61
2022/05/03 03:17:42;;;;;;;50.85;25.95;;;;;;;7.33;68.27;98726.08;2033619;87;21067;-60
2022/05/03 03:20:43;;;;;;;44.85;23.45;;;;;;;7.34;68.33;98727.74;2033195;87;21010;-60
2022/05/03 03:23:43;;;;;;;47.90;23.77;;;;;;;7.36;68.30;98725.45;2033178;87;21506;-61
2022/05/03 03:26:44;;;;;;;41.42;18.65;;;;;;;7.36;68.45;98734.58;2033152;87;21466;-61
2022/05/03 03:29:44;;;;;;;37.53;15.75;;;;;;;7.39;68.41;98731.81;2033225;87;21036;-60
2022/05/03 03:32:58;;;;;;;33.38;15.55;;;;;;;7.38;68.51;98737.11;2033172;87;21020;-60
2022/05/03 03:36:00;;;;;;;33.38;16.32;;;;;;;7.40;68.86;98741.34;2009640;88;21030;-60
2022/05/03 03:39:01;;;;;;;36.38;18.02;;;;;;;7.58;69.07;98752.62;2033270;87;21016;-61
2022/05/03 03:42:02;;;;;;;38.42;19.02;;;;;;;7.59;68.76;98743.87;2032837;87;21020;-61
2022/05/03 03:45:02;;;;;;;38.13;18.98;;;;;;;7.70;68.79;98755.54;2033260;87;21003;-61
2022/05/03 03:48:04;;;;;;;37.40;18.77;;;;;;;7.65;68.65;98754.95;2033250;87;21023;-61
2022/05/03 03:51:05;;;;;;;39.15;19.52;;;;;;;7.67;68.86;98753.95;2033458;88;21569;-61
2022/05/03 03:54:06;;;;;;;43.50;19.82;;;;;;;7.70;68.73;98753.80;2032970;88;21024;-61
2022/05/03 03:57:07;;;;;;;35.65;17.45;;;;;;;7.82;68.83;98754.09;2033140;87;21066;-61
2022/05/03 04:00:07;;;;;;;37.67;17.75;;;;;;;7.99;68.81;98751.46;2033074;87;21044;-61
2022/05/03 04:03:08;;;;;;;39.92;18.35;;;;;;;8.17;68.69;98754.04;2033192;88;21015;-61
2022/05/03 04:06:08;;;;;;;37.78;18.55;;;;;;;8.28;68.70;98752.55;2033125;87;21032;-60
2022/05/03 04:09:09;;;;;;;38.28;19.05;;;;;;;8.36;68.96;98756.52;2033145;87;20964;-61
2022/05/03 04:12:10;;;;;;;37.40;19.37;;;;;;;8.40;68.83;98764.11;2033049;86;21020;-60
2022/05/03 04:15:11;;;;;;;39.48;20.10;;;;;;;8.35;69.10;98770.06;2033300;87;21067;-61
2022/05/03 04:18:12;;;;;;;41.05;19.67;;;;;;;8.37;68.96;98769.98;2032958;88;21024;-61
2022/05/03 04:21:13;;;;;;;40.12;20.77;;;;;;;8.51;68.98;98770.59;2033226;88;21514;-61
2022/05/03 04:24:14;;;;;;;43.25;21.15;;;;;;;8.59;69.80;98771.88;2032790;88;21609;-61
2022/05/03 04:27:15;;;;;;;42.15;22.07;;;;;;;8.74;69.52;98774.58;2032923;88;21050;-61
2022/05/03 04:30:17;;;;;;;46.13;24.15;;;;;;;8.87;68.99;98769.05;2033213;88;21074;-60
2022/05/03 04:33:19;;;;;;;46.63;23.77;;;;;;;9.10;69.03;98766.94;2033215;88;21517;-61
2022/05/03 04:36:19;;;;;;;43.30;22.80;;;;;;;9.32;68.72;98766.13;2033428;88;21506;-61
2022/05/03 04:39:20;;;;;;;44.80;24.63;;;;;;;9.57;68.65;98778.25;2033270;87;20999;-61
2022/05/03 04:42:21;;;;;;;47.25;25.65;;;;;;;9.69;68.43;98775.77;2033243;87;20968;-60
2022/05/03 04:45:21;;;;;;;44.98;26.25;;;;;;;9.86;68.18;98777.41;2033514;87;21031;-61
2022/05/03 04:48:22;;;;;;;49.40;27.00;;;;;;;10.02;68.30;98778.64;2033357;88;21024;-61
2022/05/03 04:51:22;;;;;;;49.42;26.37;;;;;;;10.26;68.23;98774.64;2033600;87;21066;-61
2022/05/03 04:54:24;;;;;;;49.13;26.52;;;;;;;10.62;67.59;98772.91;2033313;87;21103;-61
2022/05/03 04:57:24;;;;;;;48.52;25.77;;;;;;;10.87;66.94;98781.37;2033422;87;21028;-61
2022/05/03 05:00:25;;;;;;;47.55;26.02;;;;;;;10.84;66.42;98775.50;2033208;87;21602;-60
2022/05/03 05:03:25;;;;;;;43.87;24.20;;;;;;;10.86;66.47;98785.41;2033239;87;21470;-61
2022/05/03 05:06:26;;;;;;;45.85;24.40;;;;;;;10.84;66.21;98784.68;2033315;87;20995;-61
2022/05/03 05:09:27;;;;;;;44.63;24.47;;;;;;;10.81;65.77;98788.81;2033218;88;20991;-61
2022/05/03 05:12:27;;;;;;;47.48;24.75;;;;;;;10.86;65.74;98793.28;2033214;86;21088;-61
2022/05/03 05:15:27;;;;;;;43.08;23.55;;;;;;;11.12;66.63;98794.73;2033175;87;21017;-61
2022/05/03 05:18:28;;;;;;;44.20;22.10;;;;;;;11.28;66.54;98791.52;2032910;88;21590;-60
2022/05/03 05:21:29;;;;;;;38.70;21.55;;;;;;;11.47;66.85;98795.09;2033046;88;21577;-61
2022/05/03 05:24:30;;;;;;;40.23;23.02;;;;;;;11.80;66.62;98783.31;2033265;87;21099;-61
2022/05/03 05:27:30;;;;;;;42.33;22.67;;;;;;;12.21;66.13;98784.97;2033335;87;21026;-61
2022/05/03 05:30:31;;;;;;;39.48;21.37;;;;;;;12.53;65.55;98787.61;2033213;87;20968;-61
2022/05/03 05:33:31;;;;;;;39.05;21.33;;;;;;;12.80;65.21;98784.38;2033212;87;21469;-61
2022/05/03 05:36:32;;;;;;;40.63;21.73;;;;;;;13.30;63.59;98786.11;2033139;87;21482;-61
2022/05/03 05:39:32;;;;;;;34.05;19.55;;;;;;;13.71;63.88;98782.25;2033224;87;21082;-61
2022/05/03 05:42:32;;;;;;;35.63;17.50;;;;;;;13.84;62.36;98776.41;2033297;87;21019;-61
2022/05/03 05:45:33;;;;;;;33.33;17.45;;;;;;;13.91;60.60;98782.56;2032945;88;21062;-61
2022/05/03 05:48:33;;;;;;;37.05;17.52;;;;;;;13.93;60.92;98784.59;2033119;88;20996;-61
2022/05/03 05:51:34;;;;;;;33.55;16.10;;;;;;;13.86;61.32;98787.70;2033209;88;21123;-61
2022/05/03 05:54:35;;;;;;;33.33;16.48;;;;;;;13.79;60.71;98785.16;2033118;87;21470;-61
2022/05/03 05:57:36;;;;;;;32.70;16.62;;;;;;;13.82;60.62;98774.84;2032965;88;21083;-61
2022/05/03 06:00:36;;;;;;;31.82;16.25;;;;;;;14.21;59.72;98776.26;2033137;87;21015;-61
2022/05/03 06:03:40;;;;;;;32.33;15.90;;;;;;;14.43;56.31;98783.83;2033379;87;21015;-61
2022/05/03 06:06:39;;;;;;;29.95;14.98;;;;;;;14.66;57.18;98785.20;2013445;88;21019;-62
2022/05/03 06:09:39;;;;;;;29.55;14.80;;;;;;;14.92;56.66;98791.05;2033287;87;21044;-61
2022/05/03 06:12:40;;;;;;;29.85;13.68;;;;;;;15.10;56.84;98791.86;2033134;86;21060;-61
2022/05/03 06:15:41;;;;;;;29.60;14.00;;;;;;;15.24;55.57;98791.58;2032694;88;21023;-61
2022/05/03 06:18:41;;;;;;;27.77;11.28;;;;;;;15.39;54.43;98788.19;2033112;88;21016;-61
2022/05/03 06:21:42;;;;;;;23.73;10.50;;;;;;;15.61;53.53;98794.36;2033158;87;21047;-61
2022/05/03 06:24:45;;;;;;;25.20;9.93;;;;;;;15.69;55.05;98802.51;2033129;87;21581;-61
2022/05/03 06:27:44;;;;;;;;;;;;;;;15.77;51.26;98818.55;2013676;88;21015;-61
2022/05/03 06:30:45;;;;;;;24.92;9.78;;;;;;;15.82;51.19;98807.66;2033019;88;20416;-61
2022/05/03 06:33:45;;;;;;;25.43;9.25;;;;;;;15.79;52.23;98807.41;2033259;88;20976;-61
2022/05/03 06:36:48;;;;;;;21.07;8.18;;;;;;;15.84;51.65;98802.56;2033208;87;21106;-62
2022/05/03 06:39:48;;;;;;;23.42;8.63;;;;;;;15.84;51.66;98808.35;2012021;87;21539;-61
2022/05/03 06:42:49;;;;;;;23.92;9.05;;;;;;;15.92;50.49;98807.23;2034352;87;21035;-61
2022/05/03 06:45:50;;;;;;;24.52;8.65;;;;;;;16.11;50.69;98809.17;2033518;87;21031;-61
2022/05/03 06:48:51;;;;;;;20.70;8.10;;;;;;;16.36;49.90;98812.37;2033765;87;21116;-61
2022/05/03 06:51:51;;;;;;;22.67;8.35;;;;;;;16.49;46.05;98813.49;2033530;87;20988;-61
2022/05/03 06:54:52;;;;;;;26.35;8.03;;;;;;;16.55;49.22;98811.16;2033050;87;21074;-61
2022/05/03 06:57:53;;;;;;;22.30;7.45;;;;;;;16.70;45.70;98814.78;2032971;88;21043;-61
2022/05/03 07:00:54;;;;;;;20.70;7.65;;;;;;;16.87;48.10;98821.27;2033395;88;20995;-61
2022/05/03 07:03:55;;;;;;;22.43;7.67;;;;;;;17.11;46.33;98826.23;2033520;87;21023;-60
2022/05/03 07:06:55;;;;;;;22.00;7.45;;;;;;;17.26;44.83;98814.28;2032970;88;21565;-60
2022/05/03 07:09:56;;;;;;;22.52;7.22;;;;;;;17.38;44.62;98828.25;2033192;87;21039;-60
2022/05/03 07:12:56;;;;;;;20.62;7.75;;;;;;;17.44;45.22;98825.06;2039040;87;21092;-61
2022/05/03 07:15:57;;;;;;;19.98;6.62;;;;;;;17.54;45.94;98823.77;2055648;86;20984;-61
2022/05/03 07:25:02;;;;;;;19.92;6.58;;;;;;;18.10;43.62;98813.42;2030066;87;20110;-60
2022/05/03 07:28:03;;;;;;;20.92;7.15;;;;;;;18.35;44.17;98814.14;2056435;86;21020;-61
2022/05/03 07:31:04;;;;;;;19.25;6.37;;;;;;;18.36;42.53;98812.34;2056867;85;21076;-61
2022/05/03 07:34:05;;;;;;;21.45;7.25;;;;;;;18.55;44.12;98810.59;2056858;86;21055;-60
2022/05/03 07:37:05;;;;;;;25.97;7.17;;;;;;;18.72;42.10;98814.30;2056945;87;21101;-61
2022/05/03 07:40:06;;;;;;;20.27;6.72;;;;;;;18.76;44.39;98806.39;2056708;87;21048;-61
2022/05/03 07:43:07;;;;;;;19.52;6.55;;;;;;;18.94;42.45;98803.84;2056945;86;21016;-61
2022/05/03 07:46:07;;;;;;;20.68;7.17;;;;;;;18.93;41.10;98804.31;2056773;86;21515;-61
2022/05/03 07:49:09;;;;;;;20.30;6.85;;;;;;;19.07;39.81;98813.63;2056801;86;21004;-61
2022/05/03 07:52:09;;;;;;;18.42;5.90;;;;;;;19.17;42.06;98812.25;2057112;86;21060;-61
2022/05/03 07:55:10;;;;;;;17.95;6.15;;;;;;;19.46;41.33;98816.03;2056851;86;21000;-61
2022/05/03 07:58:10;;;;;;;17.00;5.50;;;;;;;19.46;40.16;98814.70;2056794;87;21056;-61
2022/05/03 08:01:11;;;;;;;18.37;5.78;;;;;;;19.65;41.70;98824.86;2056840;86;21467;-61
2022/05/03 08:04:12;;;;;;;21.57;5.83;;;;;;;19.71;39.29;98821.59;2056967;86;21012;-61
2022/05/03 08:07:13;;;;;;;18.60;5.67;;;;;;;19.78;37.63;98813.34;2057032;86;21067;-61
2022/05/03 08:10:13;;;;;;;16.90;5.33;;;;;;;19.68;39.44;98816.57;2056891;86;21020;-61
2022/05/03 08:13:13;;;;;;;17.32;6.15;;;;;;;19.90;40.15;98822.80;2056678;86;21005;-61
2022/05/03 08:16:14;;;;;;;20.72;6.50;;;;;;;19.73;37.94;98827.10;2056538;86;21608;-61
2022/05/03 08:19:14;;;;;;;17.42;5.47;;;;;;;19.83;39.21;98824.41;2056754;87;21478;-61
2022/05/03 08:22:15;;;;;;;18.20;6.20;;;;;;;20.15;38.92;98822.98;2056775;86;21012;-61
2022/05/03 08:25:15;;;;;;;18.27;6.05;;;;;;;20.14;38.05;98832.47;2056671;86;21052;-61
2022/05/03 08:28:16;;;;;;;17.25;5.83;;;;;;;20.08;39.39;98829.92;2056980;86;21079;-61
2022/05/03 08:31:16;;;;;;;18.15;6.42;;;;;;;20.01;37.97;98831.53;2057003;86;21139;-61
2022/05/03 08:34:17;;;;;;;20.62;6.40;;;;;;;20.06;38.67;98831.91;2056743;86;20985;-61
2022/05/03 08:43:23;;;;;;;18.40;5.97;;;;;;;20.68;37.99;98844.34;2022574;87;20988;-61
2022/05/03 08:46:23;;;;;;;19.57;6.42;;;;;;;20.59;36.14;98831.45;2057184;87;21000;-61
2022/05/03 08:49:24;;;;;;;17.87;6.28;;;;;;;20.73;36.85;98836.22;2057086;86;21052;-61
2022/05/03 08:52:28;;;;;;;18.67;5.80;;;;;;;21.02;37.95;98830.16;2056975;86;21087;-61
2022/05/03 08:55:28;;;;;;;18.73;6.03;;;;;;;21.50;38.15;98819.31;2023065;88;21068;-61
2022/05/03 08:58:28;;;;;;;17.23;5.70;;;;;;;21.47;35.50;98822.31;2043430;86;21065;-61
2022/05/03 09:01:29;;;;;;;18.70;6.57;;;;;;;21.48;37.39;98825.33;2051641;85;21024;-61
2022/05/03 09:04:29;;;;;;;19.90;6.80;;;;;;;21.17;35.46;98835.23;2051692;85;21012;-61
2022/05/03 09:07:30;;;;;;;18.37;6.07;;;;;;;21.16;37.11;98832.73;2051625;85;21005;-61
2022/05/03 09:10:31;;;;;;;19.33;6.33;;;;;;;21.16;38.68;98833.58;2051736;85;21027;-61
2022/05/03 09:13:33;;;;;;;18.17;6.08;;;;;;;21.34;36.11;98832.12;2051287;86;21017;-61
2022/05/03 09:16:34;;;;;;;20.12;6.08;;;;;;;21.34;34.71;98824.63;2051427;86;21012;-59
2022/05/03 09:19:36;;;;;;;19.62;6.60;;;;;;;21.24;35.48;98833.59;2030233;87;21037;-59
2022/05/03 09:25:39;;;;;;;18.37;6.60;;;;;;;21.25;35.68;98822.44;2040380;86;21012;-59
2022/05/03 09:28:39;;;;;;;18.07;6.20;;;;;;;21.67;35.70;98817.55;2053406;86;21041;-59
2022/05/03 09:31:41;;;;;;;19.25;6.10;;;;;;;21.98;35.61;98808.89;2051736;85;21001;-58
2022/05/03 09:34:42;;;;;;;20.23;6.17;;;;;;;22.14;34.24;98812.87;2051174;86;21598;-59
2022/05/03 09:37:43;;;;;;;18.27;5.73;;;;;;;22.63;35.43;98810.64;2051585;85;21028;-59
2022/05/03 09:40:43;;;;;;;21.00;7.23;;;;;;;23.08;34.51;98813.64;2051602;85;21024;-59
2022/05/03 09:43:44;;;;;;;16.63;6.07;;;;;;;22.73;31.57;98822.48;2051475;87;20996;-59
2022/05/03 09:46:44;;;;;;;19.57;6.40;;;;;;;22.09;31.93;98819.72;2051458;85;21017;-59
2022/05/03 09:49:44;;;;;;;18.73;6.43;;;;;;;22.02;33.09;98816.05;2051283;85;21040;-60
2022/05/03 09:52:45;;;;;;;20.67;6.07;;;;;;;21.79;31.85;98818.05;2051491;85;21551;-59
2022/05/03 09:55:48;;;;;;;18.02;5.42;;;;;;;21.80;35.36;98821.06;2051437;87;21510;-59
2022/05/03 09:58:48;;;;;;;18.70;5.80;;;;;;;21.69;34.73;98820.05;2051228;85;21071;-59
2022/05/03 10:01:49;;;;;;;18.13;5.80;;;;;;;21.55;34.66;98832.19;2051602;85;21065;-59
2022/05/03 10:04:49;;;;;;;17.03;6.07;;;;;;;21.21;33.28;98823.75;2051606;87;21021;-59
2022/05/03 10:07:50;;;;;;;17.60;6.03;;;;;;;20.86;34.03;98834.93;2051450;86;20989;-59
2022/05/03 10:10:56;;;;;;;19.57;5.75;;;;;;;20.76;34.78;98825.23;2051331;87;21049;-59
2022/05/03 10:13:53;;;;;;;16.73;5.80;;;;;;;20.63;34.36;98821.30;2026048;87;21052;-59
2022/05/03 10:22:58;;;;;;;15.80;5.60;;;;;;;20.49;35.13;98822.23;2031573;87;21526;-59
2022/05/03 10:25:59;;;;;;;15.53;5.63;;;;;;;21.04;34.93;98817.02;2031076;88;21043;-59
2022/05/03 10:29:00;;;;;;;15.50;5.47;;;;;;;21.39;34.32;98812.47;2031198;87;21019;-60
2022/05/03 10:32:02;;;;;;;19.35;5.58;;;;;;;21.76;33.94;98807.70;2031076;87;21088;-59
2022/05/03 10:35:06;;;;;;;16.48;5.20;;;;;;;21.90;33.87;98801.70;2030822;87;21031;-59
2022/05/03 10:38:05;;;;;;;18.73;5.70;;;;;;;22.08;33.39;98810.03;2030631;87;21027;-59
2022/05/03 10:41:08;;;;;;;19.13;5.90;;;;;;;22.44;33.43;98803.00;2030972;88;21000;-59
2022/05/03 10:44:08;;;;;;;15.65;5.28;;;;;;;22.53;33.50;98808.67;2030821;87;21644;-59
2022/05/03 10:47:09;;;;;;;18.13;5.87;;;;;;;22.47;33.53;98805.36;2031305;87;20972;-59
2022/05/03 10:50:09;;;;;;;17.33;5.60;;;;;;;22.15;32.37;98799.86;2031086;87;21063;-59
2022/05/03 10:53:11;;;;;;;19.00;5.80;;;;;;;21.94;33.17;98796.36;2031101;88;20995;-59
2022/05/03 10:56:12;;;;;;;16.30;5.40;;;;;;;21.83;33.27;98803.88;2030927;87;21601;-59
2022/05/03 10:59:15;;;;;;;21.57;5.62;;;;;;;21.49;32.63;98806.14;2031306;87;21019;-59
2022/05/03 11:02:15;;;;;;;17.62;5.17;;;;;;;21.20;33.73;98803.41;2029974;87;21575;-60
2022/05/03 11:05:16;;;;;;;17.13;5.50;;;;;;;21.37;33.76;98806.45;2031092;87;21023;-59
2022/05/03 11:08:16;;;;;;;19.60;6.30;;;;;;;21.39;34.65;98803.14;2031190;88;21039;-59
2022/05/03 11:11:17;;;;;;;15.80;5.77;;;;;;;21.32;34.44;98802.59;2031066;87;21130;-60
2022/05/03 11:17:20;;;;;;;18.92;6.12;;;;;;;21.86;33.48;98809.70;2030410;87;21015;-59
2022/05/03 11:20:20;;;;;;;16.47;5.57;;;;;;;21.77;33.73;98812.05;2030894;88;20956;-59
2022/05/03 11:23:21;;;;;;;18.40;6.53;;;;;;;21.92;33.89;98818.41;2031014;87;21056;-59
2022/05/03 11:26:21;;;;;;;17.10;6.00;;;;;;;22.08;33.11;98787.34;2030951;87;21467;-59
2022/05/03 11:29:21;;;;;;;18.90;5.90;;;;;;;21.90;34.32;98794.20;2031095;87;21060;-59
2022/05/03 11:32:22;;;;;;;17.77;6.07;;;;;;;22.05;33.22;98800.55;2031188;87;21010;-59
2022/05/03 11:35:23;;;;;;;19.60;5.93;;;;;;;22.27;33.41;98782.16;2031120;87;21075;-59
2022/05/03 11:38:24;;;;;;;18.17;5.87;;;;;;;22.35;32.79;98774.13;2030924;88;21051;-60
2022/05/03 11:41:24;;;;;;;16.90;6.70;;;;;;;22.59;34.31;98771.08;2031100;87;21609;-60
2022/05/03 11:44:26;;;;;;;20.13;6.83;;;;;;;22.55;31.67;98772.42;2031124;88;20980;-59
2022/05/03 11:47:27;;;;;;;17.32;5.85;;;;;;;22.18;31.29;98775.97;2030501;88;21052;-59
2022/05/03 11:56:34;;;;;;;15.48;5.70;;;;;;;22.35;35.19;98767.45;2030546;87;21023;-59
2022/05/03 11:59:34;;;;;;;15.78;5.67;;;;;;;22.57;32.61;98757.89;2030871;87;21506;-59
2022/05/03 12:02:35;;;;;;;19.33;5.80;;;;;;;22.77;32.65;98766.81;2031147;87;21031;-59
2022/05/03 12:05:36;;;;;;;19.27;5.97;;;;;;;22.51;30.84;98788.47;2031280;88;20992;-59
2022/05/03 12:08:37;;;;;;;19.40;5.92;;;;;;;22.08;33.38;98773.50;2030964;88;21121;-59
2022/05/03 12:14:42;;;;;;;18.10;5.92;;;;;;;21.49;32.60;98754.94;2034111;86;20996;-59
2022/05/03 12:17:42;;;;;;;17.62;5.80;;;;;;;21.55;33.40;98744.13;2034261;86;21032;-60
2022/05/03 12:20:42;;;;;;;16.63;5.50;;;;;;;20.94;32.88;98755.00;2042441;87;21055;-59
2022/05/03 12:23:43;;;;;;;18.17;5.92;;;;;;;20.55;33.97;98755.48;2042381;87;21046;-59
2022/05/03 12:26:45;;;;;;;18.63;5.93;;;;;;;20.34;34.69;98755.39;2041279;87;21027;-59
2022/05/03 12:29:46;;;;;;;16.77;5.90;;;;;;;20.31;33.77;98742.37;2039322;87;22309;-59
2022/05/03 12:32:47;;;;;;;15.50;5.40;;;;;;;20.41;33.40;98739.12;2039324;85;21034;-59
2022/05/03 12:35:48;;;;;;;14.28;5.12;;;;;;;20.74;36.02;98737.93;2039265;87;21075;-59
2022/05/03 12:38:48;;;;;;;16.23;5.40;;;;;;;21.22;36.47;98734.25;2038958;87;21099;-59
2022/05/03 12:41:49;;;;;;;14.78;5.35;;;;;;;21.91;32.91;98720.62;2039258;87;21553;-59
2022/05/03 12:44:49;;;;;;;15.60;5.25;;;;;;;22.68;32.63;98717.91;2039123;87;20999;-59
2022/05/03 12:47:51;;;;;;;16.33;5.27;;;;;;;23.54;32.38;98712.55;2039305;87;21008;-60
2022/05/03 12:50:53;;;;;;;16.05;4.92;;;;;;;24.16;29.63;98728.08;2039197;87;21034;-59
2022/05/03 12:53:54;;;;;;;16.40;5.35;;;;;;;23.78;30.70;98715.52;2038912;87;21106;-59
2022/05/03 12:59:57;;;;;;;13.85;4.75;;;;;;;23.37;29.85;98720.38;2044697;86;21034;-59
2022/05/03 13:03:00;;;;;;;17.10;5.20;;;;;;;22.60;31.85;98720.13;2042325;87;21549;-59
2022/05/03 13:05:59;;;;;;;16.97;4.50;;;;;;;22.08;31.33;98710.74;2034137;86;21003;-60
2022/05/03 13:09:00;;;;;;;13.50;4.00;;;;;;;22.43;30.19;98699.30;2040211;87;21502;-60
2022/05/03 13:12:01;;;;;;;15.27;4.30;;;;;;;23.08;32.14;98709.84;2039085;87;21529;-60
2022/05/03 13:15:02;;;;;;;14.33;4.80;;;;;;;23.05;30.39;98716.38;2035653;86;21571;-60
2022/05/03 13:18:06;;;;;;;13.22;3.98;;;;;;;22.68;31.13;98710.40;2017668;88;21050;-59
2022/05/03 13:21:06;;;;;;;17.70;4.53;;;;;;;22.34;32.72;98720.87;2030969;88;20968;-60
2022/05/03 13:24:07;;;;;;;13.80;4.30;;;;;;;22.23;32.28;98722.06;2031145;86;21059;-60
2022/05/03 13:27:07;;;;;;;15.40;4.27;;;;;;;21.91;33.02;98727.29;2030992;88;21019;-59
2022/05/03 13:30:08;;;;;;;16.87;4.72;;;;;;;21.73;31.72;98720.78;2022006;85;21068;-59
2022/05/03 13:33:09;;;;;;;16.43;4.83;;;;;;;21.82;31.70;98722.13;2013356;88;21031;-59
2022/05/03 13:42:14;;;;;;;17.17;5.17;;;;;;;21.77;31.87;98703.95;2009411;87;21032;-59
2022/05/03 13:45:14;;;;;;;13.10;4.70;;;;;;;21.67;32.07;98701.96;2035364;87;21021;-59
2022/05/03 13:48:15;;;;;;;15.48;4.47;;;;;;;21.51;33.34;98709.44;2032842;86;21032;-59
2022/05/03 13:51:16;;;;;;;13.97;4.20;;;;;;;21.36;32.25;98703.41;2015714;88;21287;-59
2022/05/03 13:54:17;;;;;;;12.43;4.30;;;;;;;21.37;31.32;98696.25;2012897;88;21047;-60
2022/05/03 13:57:17;;;;;;;12.05;4.20;;;;;;;22.05;32.19;98692.88;2015730;88;21112;-59
2022/05/03 14:00:18;;;;;;;13.38;4.08;;;;;;;22.49;30.75;98692.44;2019614;87;21563;-60
2022/05/03 14:03:19;;;;;;;12.17;4.37;;;;;;;22.38;31.11;98683.46;2013772;88;21015;-60
2022/05/03 14:06:19;;;;;;;13.67;4.20;;;;;;;21.63;31.20;98702.27;2014775;88;21022;-59
2022/05/03 14:09:20;;;;;;;15.90;4.20;;;;;;;21.13;33.31;98693.06;2014153;88;20996;-60
2022/05/03 14:12:20;;;;;;;15.15;4.22;;;;;;;20.75;31.60;98693.48;2015333;88;21065;-59
2022/05/03 14:15:21;;;;;;;15.23;4.22;;;;;;;20.56;32.92;98699.89;2022028;87;21044;-59
2022/05/03 14:18:22;;;;;;;14.20;4.28;;;;;;;20.38;32.42;98698.13;2035196;86;21553;-59
2022/05/03 14:21:22;;;;;;;13.53;3.85;;;;;;;20.33;33.15;98692.94;2062997;86;21490;-60
2022/05/03 14:24:23;;;;;;;11.65;4.25;;;;;;;20.43;32.38;98700.34;2055015;85;21319;-59
2022/05/03 14:27:24;;;;;;;16.03;4.30;;;;;;;21.00;32.03;98691.69;2043103;86;21059;-60
2022/05/03 14:30:25;;;;;;;15.85;4.53;;;;;;;21.73;32.41;98686.09;2018268;88;21113;-60
2022/05/03 14:33:25;;;;;;;12.20;4.20;;;;;;;22.06;33.31;98687.36;2018449;87;21535;-60
2022/05/03 14:36:26;;;;;;;15.45;5.05;;;;;;;22.26;31.07;98704.34;2029850;88;21097;-59
2022/05/03 14:39:27;;;;;;;13.48;3.65;;;;;;;22.08;31.53;98694.72;2049797;86;21055;-59
2022/05/03 14:42:28;;;;;;;12.23;4.33;;;;;;;22.27;31.61;98696.67;2059065;86;21045;-59
2022/05/03 14:45:28;;;;;;;15.10;4.05;;;;;;;22.35;29.75;98683.81;2081456;84;21558;-59
2022/05/03 14:48:29;;;;;;;16.40;4.33;;;;;;;22.03;30.92;98700.23;2061274;85;21564;-60
2022/05/03 14:51:30;;;;;;;13.53;4.43;;;;;;;21.74;30.71;98692.28;2069593;86;20980;-60
2022/05/03 14:54:30;;;;;;;14.73;4.30;;;;;;;21.42;30.87;98696.09;2057297;86;21056;-60